Time;durP1;ratioP1;P1;durP2;ratioP2;P2;SDS_P1;SDS_P2;PMS_P1;PMS_P2;Temp;Humidity;BMP_temperature;BMP_pressure;BME280_temperature;BME280_humidity;BME280_pressure;Samples;Min_cycle;Max_cycle;Signal;HPM_P1;HPM_P2
2020/12/27 00:02:04;;;;;;;6.18;3.15;;;;;;;2.09;60.66;99901.56;5008426;28;20464;-71
2020/12/27 00:04:29;;;;;;;5.53;3.55;;;;;;;1.89;61.38;99920.84;5010224;28;20070;-70
2020/12/27 00:06:55;;;;;;;5.63;3.28;;;;;;;2.01;61.11;99913.75;5025857;28;20044;-70
2020/12/27 00:09:20;;;;;;;5.18;4.07;;;;;;;2.07;61.09;99893.84;5009505;28;20029;-71
2020/12/27 00:11:46;;;;;;;6.13;3.65;;;;;;;3.12;57.61;99879.44;5009263;28;20089;-69
2020/12/27 00:14:11;;;;;;;4.78;3.15;;;;;;;2.72;58.34;99880.38;5007608;28;20132;-70
2020/12/27 00:16:37;;;;;;;7.03;3.42;;;;;;;2.49;59.52;99880.09;5006771;28;20045;-70
2020/12/27 00:19:02;;;;;;;5.63;3.20;;;;;;;2.68;59.05;99872.75;5006450;28;20064;-70
2020/12/27 00:21:28;;;;;;;6.13;3.70;;;;;;;2.35;60.20;99883.81;5004618;28;20781;-69
2020/12/27 00:23:53;;;;;;;9.00;4.05;;;;;;;2.03;60.91;99850.13;4993292;28;20045;-70
2020/12/27 00:26:18;;;;;;;7.20;4.90;;;;;;;2.60;59.48;99860.03;5007040;28;20510;-70
2020/12/27 00:28:44;;;;;;;6.05;4.07;;;;;;;2.62;59.43;99844.50;5005657;28;20029;-71
2020/12/27 00:31:09;;;;;;;4.40;3.03;;;;;;;1.45;62.37;99834.94;5005241;28;20030;-71
2020/12/27 00:33:35;;;;;;;6.63;3.88;;;;;;;2.35;59.86;99839.97;5008591;28;20064;-70
2020/12/27 00:36:01;;;;;;;4.65;3.35;;;;;;;2.37;59.71;99815.88;4998863;28;20037;-70
2020/12/27 00:38:27;;;;;;;6.22;4.15;;;;;;;2.32;59.96;99795.34;4990675;28;20042;-70
2020/12/27 00:40:53;;;;;;;5.93;3.78;;;;;;;1.96;60.89;99782.41;4999559;28;20041;-69
2020/12/27 00:43:19;;;;;;;7.30;4.18;;;;;;;2.41;59.59;99783.97;5004317;28;20061;-70
2020/12/27 00:45:44;;;;;;;5.40;3.75;;;;;;;2.56;58.62;99774.13;4999164;28;20141;-70
2020/12/27 00:48:10;;;;;;;6.50;4.25;;;;;;;2.40;59.42;99793.44;5004586;28;20080;-70
2020/12/27 00:50:36;;;;;;;6.13;3.88;;;;;;;2.41;59.54;99778.81;5007462;28;20041;-70
2020/12/27 00:53:01;;;;;;;6.35;4.40;;;;;;;2.40;59.26;99795.16;5007375;28;20176;-70
2020/12/27 00:55:27;;;;;;;6.85;4.10;;;;;;;2.81;58.25;99772.69;5000519;28;20026;-70
2020/12/27 00:57:53;;;;;;;6.82;3.45;;;;;;;2.42;58.54;99745.25;5009435;28;20040;-71
2020/12/27 01:00:18;;;;;;;5.82;3.60;;;;;;;2.47;58.41;99727.09;5009954;28;20116;-70
2020/12/27 01:02:49;;;;;;;7.45;4.30;;;;;;;1.61;60.60;99713.59;5018240;28;20014;-70
2020/12/27 01:05:33;;;;;;;4.30;3.15;;;;;;;2.54;58.62;99720.88;5002081;28;20057;-72
2020/12/27 01:08:01;;;;;;;5.20;3.13;;;;;;;2.81;57.73;99698.69;5006677;28;20030;-69
2020/12/27 01:10:27;;;;;;;5.03;3.33;;;;;;;2.71;57.63;99692.94;5008507;28;20017;-70
2020/12/27 01:12:52;;;;;;;5.38;2.78;;;;;;;2.38;58.85;99680.88;5020748;28;20038;-70
2020/12/27 01:15:19;;;;;;;4.45;2.90;;;;;;;2.19;59.37;99671.03;5004239;28;20045;-70
2020/12/27 01:18:06;;;;;;;4.32;2.60;;;;;;;2.37;58.35;99656.81;5020728;28;20038;-71
2020/12/27 01:20:34;;;;;;;5.68;2.88;;;;;;;2.59;57.81;99633.91;5008061;28;20034;-72
2020/12/27 01:23:02;;;;;;;4.60;2.85;;;;;;;3.08;56.42;99642.88;5005004;28;20503;-72
2020/12/27 01:25:32;;;;;;;4.88;2.40;;;;;;;2.68;57.39;99651.72;5000889;28;20042;-72
2020/12/27 01:27:58;;;;;;;3.97;2.85;;;;;;;2.57;57.41;99620.19;4990374;28;20030;-71
2020/12/27 01:30:24;;;;;;;3.58;2.15;;;;;;;2.76;56.93;99616.22;5001357;28;20057;-71
2020/12/27 01:32:56;;;;;;;7.88;2.38;;;;;;;2.75;57.02;99613.69;5003605;28;20040;-70
2020/12/27 01:35:22;;;;;;;3.22;2.25;;;;;;;2.00;59.18;99644.00;5003876;28;20034;-70
2020/12/27 01:37:47;;;;;;;3.70;2.50;;;;;;;1.96;59.58;99625.19;5019666;28;20113;-70
2020/12/27 01:40:13;;;;;;;3.13;1.77;;;;;;;1.76;59.33;99583.63;5002051;28;20030;-72
2020/12/27 01:42:41;;;;;;;7.93;2.97;;;;;;;2.85;56.79;99584.16;4992150;28;20037;-72
2020/12/27 01:45:07;;;;;;;4.90;2.63;;;;;;;2.40;57.53;99599.16;5019870;28;20494;-70
2020/12/27 01:47:51;;;;;;;3.75;2.05;;;;;;;2.85;56.89;99580.75;5001800;28;20040;-71
2020/12/27 01:50:18;;;;;;;2.40;1.30;;;;;;;3.19;55.89;99571.09;4992217;28;20034;-70
2020/12/27 01:52:44;;;;;;;3.78;1.52;;;;;;;3.13;55.72;99571.28;4981396;28;20052;-70
2020/12/27 01:55:18;;;;;;;7.40;1.95;;;;;;;3.07;55.96;99558.56;5005305;28;20392;-70
2020/12/27 01:57:53;;;;;;;1.65;1.20;;;;;;;3.09;55.94;99548.19;5015948;28;20034;-70
2020/12/27 02:00:20;;;;;;;2.10;1.42;;;;;;;2.65;56.29;99540.88;5006604;28;20065;-72
2020/12/27 02:03:07;;;;;;;3.20;1.63;;;;;;;3.04;55.40;99532.00;5006143;28;20022;-71
2020/12/27 02:05:34;;;;;;;1.73;0.93;;;;;;;3.47;54.58;99536.72;5004797;28;20037;-70
2020/12/27 02:08:01;;;;;;;1.30;0.80;;;;;;;2.83;55.53;99508.53;4986529;28;20029;-73
2020/12/27 02:10:38;;;;;;;2.45;1.13;;;;;;;3.14;55.47;99523.94;5000371;28;20091;-70
2020/12/27 02:13:04;;;;;;;2.30;0.80;;;;;;;3.24;55.08;99519.31;5008115;28;20030;-70
2020/12/27 02:15:30;;;;;;;1.50;0.85;;;;;;;2.91;55.31;99500.53;5005857;28;20065;-70
2020/12/27 02:18:34;;;;;;;0.95;0.55;;;;;;;2.77;56.37;99483.72;5002835;28;20041;-70
2020/12/27 02:21:03;;;;;;;2.92;0.90;;;;;;;3.25;54.45;99489.16;4990489;28;20076;-72
2020/12/27 02:23:31;;;;;;;1.30;0.75;;;;;;;3.26;54.69;99470.22;4995097;28;20050;-71
2020/12/27 02:26:05;;;;;;;3.85;0.93;;;;;;;2.37;56.96;99460.00;5007146;28;20053;-72
2020/12/27 02:28:37;;;;;;;1.52;0.73;;;;;;;3.26;54.46;99454.72;5000543;28;20034;-71
2020/12/27 02:31:06;;;;;;;0.73;0.50;;;;;;;3.42;54.11;99471.44;5007663;28;20030;-70
2020/12/27 02:33:44;;;;;;;2.05;0.95;;;;;;;2.52;56.44;99459.56;5000416;28;20034;-70
2020/12/27 02:36:12;;;;;;;1.15;0.65;;;;;;;2.89;55.72;99443.81;5000967;28;20037;-70
2020/12/27 02:38:39;;;;;;;1.40;0.75;;;;;;;2.89;55.48;99425.75;5002950;28;20038;-72
2020/12/27 02:41:18;;;;;;;1.60;0.50;;;;;;;2.26;56.59;99404.41;4991208;28;20034;-71
2020/12/27 02:44:08;;;;;;;0.55;0.47;;;;;;;2.38;56.79;99407.53;5005907;28;20038;-70
2020/12/27 02:46:48;;;;;;;2.15;0.30;;;;;;;2.70;56.40;99402.25;5017725;28;20034;-70
2020/12/27 02:49:32;;;;;;;1.33;0.50;;;;;;;2.67;56.02;99373.97;5004867;28;20127;-71
2020/12/27 02:52:03;;;;;;;4.50;0.95;;;;;;;2.56;56.16;99360.56;5004731;28;20026;-71
2020/12/27 02:54:28;;;;;;;1.10;0.40;;;;;;;2.60;56.00;99338.09;5000411;28;20114;-72
2020/12/27 02:56:54;;;;;;;1.25;0.38;;;;;;;2.60;55.92;99335.50;4992841;28;20026;-72
2020/12/27 02:59:20;;;;;;;0.70;0.38;;;;;;;2.90;54.83;99326.78;5001543;28;20392;-72
2020/12/27 03:01:46;;;;;;;1.17;0.40;;;;;;;2.88;55.19;99320.00;5001106;28;20026;-72
2020/12/27 03:04:30;;;;;;;1.42;0.60;;;;;;;2.04;57.22;99280.50;5000602;28;20057;-70
2020/12/27 03:07:02;;;;;;;;;;;;;;;2.46;56.48;99299.84;4999734;28;20036;-70
2020/12/27 03:09:40;;;;;;;2.35;0.38;;;;;;;2.90;55.25;99292.41;5004343;28;19919;-73
2020/12/27 03:12:31;;;;;;;0.93;0.40;;;;;;;2.36;56.40;99265.78;5018221;28;20498;-70
2020/12/27 03:14:56;;;;;;;0.60;0.30;;;;;;;2.90;54.94;99275.16;5007792;28;20034;-71
2020/12/27 03:17:41;;;;;;;1.00;0.52;;;;;;;2.01;57.04;99298.63;4997244;28;20060;-70
2020/12/27 03:20:35;;;;;;;1.30;0.70;;;;;;;2.71;55.58;99272.38;4992637;28;20149;-71
2020/12/27 03:23:06;;;;;;;1.00;0.70;;;;;;;2.95;55.08;99269.84;4993150;28;20065;-71
2020/12/27 03:25:43;;;;;;;1.70;1.25;;;;;;;2.25;56.58;99232.59;5023091;28;20397;-70
2020/12/27 03:28:10;;;;;;;2.42;1.80;;;;;;;1.57;58.59;99248.41;5023092;28;20033;-71
2020/12/27 03:30:36;;;;;;;2.35;1.77;;;;;;;2.67;55.89;99242.41;5003325;28;20511;-71
2020/12/27 03:33:07;;;;;;;2.20;2.00;;;;;;;2.60;55.51;99234.91;4994429;28;20050;-70
2020/12/27 03:35:45;;;;;;;3.28;2.38;;;;;;;2.54;55.70;99216.19;4996320;28;20419;-70
2020/12/27 03:38:12;;;;;;;3.80;2.60;;;;;;;2.80;54.94;99211.03;5016401;28;20042;-71
2020/12/27 03:40:57;;;;;;;2.53;2.05;;;;;;;2.48;55.75;99207.78;5003395;28;20035;-72
2020/12/27 03:44:00;;;;;;;2.80;2.47;;;;;;;2.58;55.17;99188.56;5006317;28;20245;-71
2020/12/27 03:46:46;;;;;;;5.30;2.47;;;;;;;2.36;55.53;99203.91;5007646;28;20064;-70
2020/12/27 03:49:31;;;;;;;3.13;2.90;;;;;;;2.11;55.30;99180.66;5008609;28;20038;-71
2020/12/27 03:52:17;;;;;;;3.22;2.92;;;;;;;2.18;55.70;99196.75;4990264;28;20117;-71
2020/12/27 03:55:09;;;;;;;2.38;2.17;;;;;;;2.05;54.73;99173.09;5002812;28;20235;-71
2020/12/27 03:57:45;;;;;;;2.92;2.67;;;;;;;2.39;54.07;99206.38;5008947;28;20029;-71
2020/12/27 04:00:29;;;;;;;1.95;1.80;;;;;;;2.74;53.54;99158.75;5022865;28;20030;-71
2020/12/27 04:03:01;;;;;;;2.92;2.63;;;;;;;2.32;54.26;99151.56;5006727;28;20463;-70
2020/12/27 04:05:31;;;;;;;2.25;2.03;;;;;;;1.92;55.01;99146.88;5005580;28;20062;-70
2020/12/27 04:07:56;;;;;;;3.00;2.13;;;;;;;2.46;53.73;99132.22;4999355;28;20026;-70
2020/12/27 04:10:23;;;;;;;2.00;1.80;;;;;;;2.93;52.46;99127.94;5003616;28;20054;-72
2020/12/27 04:12:49;;;;;;;2.53;2.20;;;;;;;3.01;51.58;99113.94;5011029;28;20872;-70
2020/12/27 04:15:15;;;;;;;2.75;1.75;;;;;;;1.43;55.52;99117.50;5003601;28;20034;-70
2020/12/27 04:17:55;;;;;;;2.50;2.08;;;;;;;1.44;56.00;99098.56;5007231;28;20500;-70
2020/12/27 04:20:25;;;;;;;2.72;1.88;;;;;;;1.35;57.40;99073.94;5004694;28;20040;-71
2020/12/27 04:22:51;;;;;;;2.75;2.55;;;;;;;1.23;58.44;99107.75;5001465;28;20034;-70
2020/12/27 04:25:18;;;;;;;2.45;2.20;;;;;;;1.49;56.97;99092.41;5011426;28;20030;-71
2020/12/27 04:27:44;;;;;;;2.35;2.03;;;;;;;1.47;57.39;99077.91;5017744;28;20062;-71
2020/12/27 04:30:09;;;;;;;3.05;2.65;;;;;;;2.06;55.25;99082.00;4998990;28;20124;-71
2020/12/27 04:32:52;;;;;;;2.40;2.20;;;;;;;1.27;57.25;99065.59;4992640;28;20034;-70
2020/12/27 04:35:22;;;;;;;3.03;2.65;;;;;;;1.65;56.36;99050.72;5009479;22;20089;-70
2020/12/27 04:37:48;;;;;;;3.10;1.98;;;;;;;1.45;57.11;99064.22;5004286;28;20038;-68
2020/12/27 04:40:22;;;;;;;2.58;2.10;;;;;;;1.66;56.09;99057.53;4984136;28;20030;-69
2020/12/27 04:42:53;;;;;;;2.75;2.53;;;;;;;1.54;56.64;99042.50;5000859;28;20026;-69
2020/12/27 04:45:32;;;;;;;2.25;2.05;;;;;;;1.55;56.62;99050.19;4974741;28;20041;-71
2020/12/27 04:48:10;;;;;;;2.25;1.95;;;;;;;1.13;57.95;99032.59;4981520;28;20309;-70
2020/12/27 04:51:10;;;;;;;2.88;2.20;;;;;;;2.11;54.87;99041.47;4960998;28;20100;-70
2020/12/27 04:53:40;;;;;;;2.33;1.98;;;;;;;1.06;56.96;99015.63;4987462;28;20038;-68
2020/12/27 04:56:13;;;;;;;1.88;1.75;;;;;;;1.31;56.77;99008.84;4996316;28;20127;-69
2020/12/27 04:58:53;;;;;;;2.15;1.80;;;;;;;1.60;55.57;99016.56;4966881;28;20040;-70
2020/12/27 05:01:22;;;;;;;2.10;1.70;;;;;;;1.70;55.46;99029.06;4989165;28;20407;-69
2020/12/27 05:04:03;;;;;;;2.47;1.52;;;;;;;1.50;55.94;98993.66;4986904;28;20042;-69
2020/12/27 05:06:39;;;;;;;2.80;1.85;;;;;;;1.90;55.11;98982.03;4984014;28;20068;-67
2020/12/27 05:09:09;;;;;;;2.17;1.80;;;;;;;1.41;56.57;98980.25;4983800;28;20162;-69
2020/12/27 05:11:36;;;;;;;2.60;1.80;;;;;;;1.79;55.54;98948.06;4963646;28;20452;-69
2020/12/27 05:14:10;;;;;;;2.40;1.92;;;;;;;1.43;57.10;98968.19;4998996;28;20037;-71
2020/12/27 05:16:43;;;;;;;2.75;1.52;;;;;;;1.65;56.02;98950.28;4982844;28;20038;-68
2020/12/27 05:19:09;;;;;;;2.25;1.98;;;;;;;1.58;57.06;98956.53;4989497;28;20038;-69
2020/12/27 05:21:39;;;;;;;3.00;1.98;;;;;;;1.24;57.90;98952.47;4984520;28;20034;-70
2020/12/27 05:24:22;;;;;;;2.08;1.88;;;;;;;1.31;57.86;98982.25;4994311;28;20030;-68
2020/12/27 05:26:59;;;;;;;2.88;2.63;;;;;;;1.36;57.71;98940.94;4988158;28;20030;-69
2020/12/27 05:29:46;;;;;;;2.28;1.73;;;;;;;1.35;57.49;98944.38;5006267;28;20022;-68
2020/12/27 05:32:30;;;;;;;2.88;1.40;;;;;;;1.63;56.99;98949.50;4997262;28;20100;-70
2020/12/27 05:35:35;;;;;;;1.92;1.73;;;;;;;1.15;58.13;98898.69;4963247;28;112703;-69
2020/12/27 05:38:18;;;;;;;2.13;1.50;;;;;;;1.66;56.93;98905.59;4917244;28;101661;-68
2020/12/27 05:40:44;;;;;;;2.75;1.92;;;;;;;1.21;58.76;98912.22;4965509;28;20051;-69
2020/12/27 05:43:17;;;;;;;1.88;1.67;;;;;;;1.22;59.00;98918.22;4966614;28;20099;-69
2020/12/27 05:45:55;;;;;;;2.45;2.22;;;;;;;1.03;59.54;98903.34;4965534;28;20053;-68
2020/12/27 05:48:21;;;;;;;1.63;1.38;;;;;;;1.75;57.67;98884.66;4965149;28;20038;-70
2020/12/27 05:50:50;;;;;;;2.90;1.90;;;;;;;1.24;59.16;98906.97;4977231;28;20039;-68
2020/12/27 05:53:18;;;;;;;4.22;1.90;;;;;;;0.43;61.08;98883.81;4951117;28;20023;-71
2020/12/27 05:55:53;;;;;;;2.05;1.77;;;;;;;0.65;60.58;98887.41;4968566;28;20030;-69
2020/12/27 05:58:21;;;;;;;;;;;;;;;1.48;58.43;98859.03;4981384;28;20035;-70
2020/12/27 06:00:58;;;;;;;6.47;1.50;;;;;;;0.97;60.00;98852.13;4965222;28;19921;-69
2020/12/27 06:03:26;;;;;;;1.75;1.30;;;;;;;0.57;60.97;98843.13;4980159;28;20031;-68
2020/12/27 06:05:54;;;;;;;1.33;1.20;;;;;;;0.51;60.95;98827.88;4950787;28;20497;-68
2020/12/27 06:08:30;;;;;;;1.65;1.33;;;;;;;1.47;58.42;98825.59;4952568;28;20055;-69
2020/12/27 06:11:05;;;;;;;1.23;0.52;;;;;;;0.50;61.05;98810.75;4976932;28;20034;-68
2020/12/27 06:14:22;;;;;;;2.40;1.73;;;;;;;0.99;60.20;98804.03;4962489;28;20074;-70
2020/12/27 06:17:15;;;;;;;1.77;1.52;;;;;;;0.72;60.52;98792.06;4976333;28;20570;-69
2020/12/27 06:20:09;;;;;;;2.13;1.50;;;;;;;0.85;60.27;98790.78;4965218;28;20039;-70
2020/12/27 06:22:42;;;;;;;;;;;;;;;0.97;60.16;98762.09;4946851;28;20500;-70
2020/12/27 06:25:22;;;;;;;1.15;0.85;;;;;;;0.52;61.17;98749.84;4970230;28;20383;-69
2020/12/27 06:27:54;;;;;;;2.05;0.80;;;;;;;0.91;59.95;98749.44;4975457;28;20030;-68
2020/12/27 06:30:54;;;;;;;1.73;1.50;;;;;;;0.82;60.31;98713.75;4964116;28;20233;-70
2020/12/27 06:33:52;;;;;;;1.65;1.30;;;;;;;0.58;61.08;98731.66;4964040;28;20050;-68
2020/12/27 06:36:40;;;;;;;1.77;1.67;;;;;;;0.87;60.06;98693.84;4959161;28;20053;-70
2020/12/27 06:39:27;;;;;;;1.38;1.05;;;;;;;0.73;59.85;98699.47;4983334;28;20031;-70
2020/12/27 06:42:15;;;;;;;1.50;1.40;;;;;;;1.31;59.01;98675.97;4963236;28;20456;-68
2020/12/27 06:44:52;;;;;;;4.40;1.00;;;;;;;0.58;60.17;98628.84;4960852;28;20039;-71
2020/12/27 06:47:50;;;;;;;2.35;1.48;;;;;;;0.61;60.62;98654.47;4969008;28;20051;-69
2020/12/27 06:50:26;;;;;;;1.45;1.15;;;;;;;0.83;60.09;98661.41;4962840;28;20504;-70
2020/12/27 06:53:11;;;;;;;1.67;1.02;;;;;;;0.97;59.41;98672.06;4963531;28;20033;-71
2020/12/27 06:56:02;;;;;;;1.63;1.02;;;;;;;0.78;60.23;98647.88;4962778;28;20023;-70
2020/12/27 06:59:01;;;;;;;2.05;1.23;;;;;;;0.34;61.82;98640.78;4961834;28;20259;-68
2020/12/27 07:01:27;;;;;;;1.25;1.02;;;;;;;1.11;59.10;98623.50;4966838;28;20039;-69
2020/12/27 07:04:12;;;;;;;1.55;1.30;;;;;;;1.32;58.10;98621.84;4950116;28;20121;-69
2020/12/27 07:06:45;;;;;;;1.20;1.00;;;;;;;1.10;59.65;98596.13;4982017;28;20063;-68
2020/12/27 07:09:21;;;;;;;1.95;1.33;;;;;;;1.26;59.04;98598.09;4963832;28;20085;-69
2020/12/27 07:11:48;;;;;;;1.30;0.70;;;;;;;0.92;59.97;98580.50;4968098;28;20026;-70
2020/12/27 07:14:14;;;;;;;2.35;1.13;;;;;;;1.09;58.92;98573.84;4966418;28;20042;-69
2020/12/27 07:16:56;;;;;;;1.50;0.93;;;;;;;0.76;59.65;98557.91;4968442;28;20544;-68
2020/12/27 07:19:25;;;;;;;1.40;0.90;;;;;;;1.05;59.82;98559.41;4967445;28;20551;-69
2020/12/27 07:21:51;;;;;;;1.40;0.93;;;;;;;1.39;58.88;98537.50;4969942;28;20046;-70
2020/12/27 07:24:22;;;;;;;1.55;1.25;;;;;;;1.10;58.95;98538.66;4969393;28;20047;-70
2020/12/27 07:26:48;;;;;;;1.40;0.57;;;;;;;0.85;59.61;98543.88;4967911;28;20126;-72
2020/12/27 07:29:33;;;;;;;3.28;1.42;;;;;;;1.00;59.94;98547.63;4982248;28;20031;-68
2020/12/27 07:31:59;;;;;;;1.90;1.08;;;;;;;1.31;58.92;98526.69;4969026;28;20392;-68
2020/12/27 07:34:28;;;;;;;1.33;0.77;;;;;;;1.34;58.91;98529.16;4964709;28;20715;-68
2020/12/27 07:37:02;;;;;;;1.58;1.02;;;;;;;1.38;58.64;98522.97;4967459;28;20308;-69
2020/12/27 07:39:46;;;;;;;1.52;1.08;;;;;;;1.39;58.96;98514.34;4966726;28;20464;-71
2020/12/27 07:42:21;;;;;;;1.33;1.05;;;;;;;1.03;59.70;98504.59;4965840;28;20035;-69
2020/12/27 07:44:47;;;;;;;1.02;0.85;;;;;;;1.58;58.04;98529.94;4949642;28;20026;-67
2020/12/27 07:47:12;;;;;;;1.20;0.80;;;;;;;1.14;59.54;98508.50;4963224;28;20448;-68
2020/12/27 07:49:38;;;;;;;0.70;0.47;;;;;;;1.16;59.57;98480.97;4966825;28;20050;-70
2020/12/27 07:52:03;;;;;;;2.22;0.50;;;;;;;1.36;59.29;98472.47;4965515;28;20026;-68
2020/12/27 07:54:29;;;;;;;1.33;0.82;;;;;;;1.04;60.25;98467.72;4964027;28;20038;-68
2020/12/27 07:56:54;;;;;;;1.20;0.90;;;;;;;1.04;59.99;98461.72;4968253;28;20313;-68
2020/12/27 07:59:20;;;;;;;1.42;0.70;;;;;;;1.29;59.78;98485.56;4966499;28;20058;-68
2020/12/27 08:01:46;;;;;;;0.85;0.70;;;;;;;1.15;60.02;98463.84;4967619;28;20043;-69
2020/12/27 08:04:11;;;;;;;1.10;0.70;;;;;;;1.28;59.60;98447.03;4964754;28;20564;-68
2020/12/27 08:06:40;;;;;;;1.38;0.75;;;;;;;1.39;59.64;98457.72;4982540;28;20054;-69
2020/12/27 08:09:08;;;;;;;1.27;0.60;;;;;;;1.57;58.68;98465.63;4963824;28;20047;-70
2020/12/27 08:11:36;;;;;;;1.33;0.82;;;;;;;1.74;58.23;98442.59;4965071;28;20118;-69
2020/12/27 08:14:06;;;;;;;1.35;1.02;;;;;;;1.15;60.16;98438.13;4965031;28;20035;-68
2020/12/27 08:16:32;;;;;;;0.95;0.50;;;;;;;1.20;60.09;98438.81;4964682;28;20133;-68
2020/12/27 08:19:07;;;;;;;2.85;0.70;;;;;;;1.03;59.96;98424.03;4961243;28;20042;-68
2020/12/27 08:21:34;;;;;;;0.95;0.50;;;;;;;0.58;61.41;98433.47;4964328;28;20118;-69
2020/12/27 08:24:03;;;;;;;0.95;0.60;;;;;;;1.28;59.97;98408.44;4966593;28;20396;-69
2020/12/27 08:26:30;;;;;;;1.25;0.73;;;;;;;1.49;59.63;98399.84;4964900;28;20512;-68
2020/12/27 08:29:20;;;;;;;3.00;0.60;;;;;;;1.27;59.69;98397.31;4946517;28;20031;-69
2020/12/27 08:31:52;;;;;;;0.95;0.60;;;;;;;0.69;61.96;98386.78;4962536;28;20452;-69
2020/12/27 08:34:23;;;;;;;1.35;1.02;;;;;;;1.36;60.09;98382.38;4981153;28;20082;-70
2020/12/27 08:36:57;;;;;;;2.28;0.98;;;;;;;1.17;61.21;98365.16;4949955;28;20034;-68
2020/12/27 08:39:34;;;;;;;1.15;0.80;;;;;;;1.27;60.52;98360.44;4963442;28;20030;-70
2020/12/27 08:42:06;;;;;;;1.33;0.98;;;;;;;1.53;59.69;98349.09;4966785;28;20031;-71
2020/12/27 08:44:31;;;;;;;1.00;0.60;;;;;;;1.31;59.93;98343.97;4952207;28;20493;-69
2020/12/27 08:47:02;;;;;;;1.63;0.70;;;;;;;0.73;61.82;98336.09;4965389;28;20043;-69
2020/12/27 08:49:39;;;;;;;1.50;0.70;;;;;;;1.60;59.49;98340.19;4967921;28;20039;-69
2020/12/27 08:52:13;;;;;;;1.13;0.93;;;;;;;1.48;59.66;98318.41;4970950;28;20034;-70
2020/12/27 08:54:38;;;;;;;0.70;0.40;;;;;;;1.66;59.24;98326.19;4970876;28;20031;-70
2020/12/27 08:57:06;;;;;;;0.80;0.47;;;;;;;0.69;61.83;98307.91;4966165;28;20310;-69
2020/12/27 08:59:32;;;;;;;0.68;0.43;;;;;;;1.19;60.74;98316.19;4965902;28;20037;-69
2020/12/27 09:02:08;;;;;;;1.13;0.95;;;;;;;1.46;59.79;98314.19;4963651;28;20105;-68
2020/12/27 09:04:34;;;;;;;0.90;0.38;;;;;;;1.22;60.95;98305.78;4961076;28;20493;-71
2020/12/27 09:07:00;;;;;;;0.60;0.25;;;;;;;1.60;59.33;98295.59;4964748;28;20041;-68
2020/12/27 09:09:25;;;;;;;0.90;0.50;;;;;;;1.30;60.41;98298.53;4964279;28;20038;-70
2020/12/27 09:11:51;;;;;;;1.30;0.57;;;;;;;1.95;58.59;98288.81;4968021;28;20384;-71
2020/12/27 09:14:35;;;;;;;0.80;0.43;;;;;;;1.50;59.94;98285.66;4967403;28;20034;-70
2020/12/27 09:17:06;;;;;;;0.80;0.40;;;;;;;1.83;59.06;98281.69;4981207;28;20035;-69
2020/12/27 09:19:34;;;;;;;0.63;0.38;;;;;;;1.20;60.19;98313.56;4966166;28;20042;-70
2020/12/27 09:22:03;;;;;;;1.13;0.43;;;;;;;2.03;58.78;98271.28;4960266;28;20031;-68
2020/12/27 09:24:29;;;;;;;0.35;0.17;;;;;;;1.58;59.82;98261.34;4962921;28;20035;-68
2020/12/27 09:27:05;;;;;;;0.90;0.30;;;;;;;1.59;59.81;98268.97;4964954;28;20037;-68
2020/12/27 09:29:30;;;;;;;0.82;0.50;;;;;;;1.79;59.36;98269.84;4968450;28;20109;-68
2020/12/27 09:32:07;;;;;;;0.70;0.38;;;;;;;2.11;58.89;98255.47;4968116;28;20359;-67
2020/12/27 09:34:33;;;;;;;0.50;0.30;;;;;;;2.07;58.99;98251.38;4981515;28;20097;-68
2020/12/27 09:37:19;;;;;;;0.38;0.20;;;;;;;1.60;60.07;98262.13;4962918;28;20448;-69
2020/12/27 09:39:55;;;;;;;95.43;36.97;;;;;;;1.66;60.33;98236.06;4960755;28;20034;-69
2020/12/27 09:42:26;;;;;;;19.92;6.10;;;;;;;1.28;61.11;98264.31;4963768;28;20035;-69
2020/12/27 09:44:52;;;;;;;0.80;0.32;;;;;;;0.90;62.29;98243.63;4966256;28;20489;-70
2020/12/27 09:47:25;;;;;;;0.68;0.30;;;;;;;1.25;61.36;98242.13;4968198;28;20468;-71
2020/12/27 09:50:08;;;;;;;3.80;0.43;;;;;;;1.73;60.13;98227.19;4963327;28;20098;-67
2020/12/27 09:52:44;;;;;;;0.50;0.15;;;;;;;1.35;61.40;98229.72;4964181;28;20035;-69
2020/12/27 09:55:10;;;;;;;0.35;0.20;;;;;;;1.61;60.40;98220.84;4967031;28;20354;-70
2020/12/27 09:57:35;;;;;;;0.75;0.38;;;;;;;1.04;62.44;98205.31;4964943;28;20046;-68
2020/12/27 10:00:02;;;;;;;2.35;0.55;;;;;;;1.66;60.20;98207.75;4983745;28;20035;-69
2020/12/27 10:02:30;;;;;;;0.80;0.28;;;;;;;1.75;60.15;98202.16;4965437;28;20047;-70
2020/12/27 10:04:56;;;;;;;1.63;0.40;;;;;;;1.84;60.07;98193.19;4965087;28;20101;-69
2020/12/27 10:07:21;;;;;;;1.20;0.52;;;;;;;1.55;60.51;98189.38;4965123;28;20141;-69
2020/12/27 10:09:47;;;;;;;3.20;2.90;;;;;;;1.79;60.25;98167.66;4964733;28;20039;-69
2020/12/27 10:12:13;;;;;;;7.93;1.20;;;;;;;1.93;59.89;98180.72;4964122;28;20035;-69
2020/12/27 10:14:38;;;;;;;1.58;0.75;;;;;;;2.00;58.92;98164.94;4965532;28;20166;-69
2020/12/27 10:17:04;;;;;;;1.77;0.95;;;;;;;1.91;59.48;98169.66;4980311;28;20054;-69
2020/12/27 10:19:30;;;;;;;0.90;0.50;;;;;;;1.81;59.28;98144.41;4964967;28;20132;-69
2020/12/27 10:21:56;;;;;;;1.05;0.55;;;;;;;1.35;61.56;98147.34;4968697;28;20057;-69
2020/12/27 10:24:28;;;;;;;0.50;0.22;;;;;;;1.69;60.19;98151.81;4968190;28;20070;-70
2020/12/27 10:26:53;;;;;;;0.55;0.32;;;;;;;1.53;60.97;98140.56;4983177;28;20026;-68
2020/12/27 10:29:19;;;;;;;24.52;10.68;;;;;;;1.87;60.03;98136.38;4964041;28;20043;-68
2020/12/27 10:31:50;;;;;;;3.13;0.93;;;;;;;1.46;61.36;98103.13;4977531;28;20055;-70
2020/12/27 10:34:16;;;;;;;10.77;4.75;;;;;;;1.59;60.51;98101.63;4981021;28;20068;-68
2020/12/27 10:36:46;;;;;;;1.85;0.20;;;;;;;1.50;60.97;98104.66;5000876;23;20054;-71
2020/12/27 10:39:12;;;;;;;0.60;0.30;;;;;;;2.04;59.06;98109.78;4982600;28;20154;-70
2020/12/27 10:41:39;;;;;;;0.35;0.10;;;;;;;1.97;59.66;98093.81;4983994;28;20022;-68
2020/12/27 10:44:05;;;;;;;0.68;0.20;;;;;;;1.80;60.08;98094.66;4999551;28;20043;-68
2020/12/27 10:46:31;;;;;;;0.45;0.20;;;;;;;1.24;61.44;98087.84;4984654;28;20187;-69
2020/12/27 10:48:56;;;;;;;0.60;0.15;;;;;;;2.03;59.54;98079.81;5002839;28;20072;-69
2020/12/27 10:51:22;;;;;;;0.73;0.22;;;;;;;1.25;61.14;98079.19;4981350;28;20096;-68
2020/12/27 10:53:47;;;;;;;0.40;0.10;;;;;;;1.68;60.54;98072.03;4983371;28;20042;-69
2020/12/27 10:56:13;;;;;;;0.30;0.20;;;;;;;1.60;60.99;98063.88;4985359;28;20062;-69
2020/12/27 10:58:38;;;;;;;0.32;0.10;;;;;;;1.89;60.30;98055.56;4986643;28;20457;-69
2020/12/27 11:01:04;;;;;;;0.38;0.17;;;;;;;1.58;60.97;98051.06;4979467;28;20038;-70
2020/12/27 11:03:29;;;;;;;0.30;0.10;;;;;;;1.81;60.86;98041.38;4979534;28;20140;-70
2020/12/27 11:05:55;;;;;;;0.15;0.05;;;;;;;1.66;60.81;98037.81;4966455;28;20038;-69
2020/12/27 11:08:20;;;;;;;0.63;0.10;;;;;;;1.42;61.08;98030.38;4981305;28;20506;-69
2020/12/27 11:10:46;;;;;;;0.13;0.10;;;;;;;1.59;61.16;98039.03;4979495;28;20093;-70
2020/12/27 11:13:11;;;;;;;0.30;0.10;;;;;;;1.44;61.34;98009.69;4979463;28;20378;-69
2020/12/27 11:15:37;;;;;;;1.20;0.28;;;;;;;1.85;60.49;98028.28;4983964;28;20383;-69
2020/12/27 11:18:04;;;;;;;0.60;0.10;;;;;;;1.56;61.20;98000.56;4971524;28;20070;-69
2020/12/27 11:20:29;;;;;;;0.20;0.10;;;;;;;1.28;61.83;98002.69;4967475;28;20038;-68
2020/12/27 11:22:59;;;;;;;0.20;0.10;;;;;;;1.94;60.25;97996.91;4972004;28;20085;-69
2020/12/27 11:25:26;;;;;;;0.40;0.20;;;;;;;1.87;59.83;98003.28;4985567;28;20085;-68
2020/12/27 11:27:51;;;;;;;0.50;0.20;;;;;;;1.70;60.37;97980.09;4983259;28;20739;-69
2020/12/27 11:30:18;;;;;;;0.30;0.10;;;;;;;1.22;62.33;97986.72;4985088;28;20027;-69
2020/12/27 11:32:43;;;;;;;0.17;0.10;;;;;;;1.77;60.32;97966.00;4983085;28;20157;-69
2020/12/27 11:35:09;;;;;;;0.25;0.13;;;;;;;1.63;61.12;97968.47;4983795;28;20057;-69
2020/12/27 11:37:35;;;;;;;0.35;0.10;;;;;;;2.04;60.15;97963.81;4983160;28;20038;-68
2020/12/27 11:40:00;;;;;;;0.30;0.10;;;;;;;1.87;60.37;97959.50;4999513;28;20718;-70
2020/12/27 11:42:27;;;;;;;0.40;0.10;;;;;;;1.33;61.93;97953.59;4985094;28;20420;-70
2020/12/27 11:44:53;;;;;;;0.30;0.08;;;;;;;1.83;60.02;97939.97;4997435;28;20586;-68
2020/12/27 11:47:19;;;;;;;0.03;0.00;;;;;;;1.80;60.73;97932.41;4985519;28;20034;-70
2020/12/27 11:49:45;;;;;;;0.20;0.10;;;;;;;1.37;62.10;97936.22;4984049;28;20043;-69
2020/12/27 11:52:11;;;;;;;0.30;0.10;;;;;;;1.56;61.68;97923.34;4986169;28;20411;-70
2020/12/27 11:54:37;;;;;;;0.25;0.10;;;;;;;1.79;61.10;97928.13;4976952;28;20035;-69
2020/12/27 11:57:02;;;;;;;0.20;0.10;;;;;;;2.01;60.34;97899.53;4975003;28;20038;-69
2020/12/27 11:59:27;;;;;;;0.28;0.10;;;;;;;1.73;61.13;97889.84;4987512;28;20154;-69
2020/12/27 12:01:53;;;;;;;0.50;0.15;;;;;;;1.99;60.64;97921.13;4982306;28;20270;-68
2020/12/27 12:04:19;;;;;;;13.07;5.97;;;;;;;1.70;60.90;97882.25;4982670;28;20054;-69